createdAt,value
2023-03-17T00:00:41.594Z,95830.56
2023-03-17T00:01:43.457Z,95826.22
2023-03-17T00:02:47.047Z,95704.63
2023-03-17T00:03:50.095Z,95836.63
2023-03-17T00:04:52.064Z,95855.91
2023-03-17T00:05:54.969Z,95869.56
2023-03-17T00:06:56.898Z,95761.84
2023-03-17T00:08:13.150Z,95854.63
2023-03-17T00:09:17.867Z,95849.72
2023-03-17T00:10:25.243Z,95762.34
2023-03-17T00:11:28.157Z,95718.88
2023-03-17T00:12:30.141Z,95768.75
2023-03-17T00:13:32.020Z,95866.16
2023-03-17T00:14:33.814Z,95710.38
2023-03-17T00:15:35.869Z,95869.16
2023-03-17T00:16:43.355Z,95735.97
2023-03-17T00:17:46.439Z,95813.75
2023-03-17T00:18:50.404Z,95728.00
2023-03-17T00:19:52.226Z,95736.41
2023-03-17T00:20:54.060Z,95657.66
2023-03-17T00:21:55.943Z,95880.63
2023-03-17T00:23:01.693Z,95718.53
2023-03-17T00:24:03.476Z,95745.00
2023-03-17T00:25:20.160Z,95765.03
2023-03-17T00:26:22.580Z,95852.06
2023-03-17T00:27:24.393Z,95825.00
2023-03-17T00:28:28.009Z,95853.84
2023-03-17T00:29:29.801Z,95844.25
2023-03-17T00:30:31.742Z,95833.38
2023-03-17T00:31:34.925Z,95712.06
2023-03-17T00:32:38.558Z,95724.97
2023-03-17T00:33:41.186Z,95840.69
2023-03-17T00:34:43.982Z,95755.38
2023-03-17T00:35:46.305Z,95726.81
2023-03-17T00:36:49.621Z,95845.97
2023-03-17T00:37:53.717Z,95890.97
2023-03-17T00:38:56.274Z,95695.69
2023-03-17T00:39:58.087Z,95759.09
2023-03-17T00:40:59.893Z,95710.13
2023-03-17T00:42:01.773Z,95708.69
2023-03-17T00:43:03.521Z,95850.94
2023-03-17T00:44:05.470Z,95746.28
2023-03-17T00:45:07.925Z,95747.34
2023-03-17T00:46:15.913Z,95712.81
2023-03-17T00:47:17.822Z,95849.25
2023-03-17T00:48:22.074Z,95841.75
2023-03-17T00:49:25.650Z,95819.19
2023-03-17T00:50:29.231Z,95726.88
2023-03-17T00:51:31.285Z,95877.44
2023-03-17T00:52:33.419Z,95864.53
2023-03-17T00:53:35.367Z,95680.50
2023-03-17T00:54:37.202Z,95701.31
2023-03-17T00:55:39.018Z,95722.00
2023-03-17T00:56:41.816Z,95688.78
2023-03-17T00:57:43.866Z,95710.09
2023-03-17T00:58:46.287Z,95721.53
2023-03-17T00:59:48.388Z,95861.09
2023-03-17T01:00:50.538Z,95845.19
2023-03-17T01:01:52.725Z,95722.84
2023-03-17T01:02:56.784Z,95706.34
2023-03-17T01:03:58.658Z,95877.09
2023-03-17T01:05:06.217Z,95637.81
2023-03-17T01:06:11.735Z,95854.31
2023-03-17T01:07:13.605Z,95725.84
2023-03-17T01:08:16.417Z,95765.75
2023-03-17T01:09:19.698Z,95726.47
2023-03-17T01:10:27.106Z,95709.06
2023-03-17T01:11:28.994Z,95695.75
2023-03-17T01:12:30.777Z,95782.47
2023-03-17T01:13:32.554Z,95772.63
2023-03-17T01:14:37.377Z,95745.84
2023-03-17T01:15:43.162Z,95748.75
2023-03-17T01:16:45.109Z,95859.09
2023-03-17T01:17:47.068Z,95726.63
2023-03-17T01:18:49.545Z,95722.44
2023-03-17T01:19:51.391Z,95733.41
2023-03-17T01:20:53.331Z,95854.34
2023-03-17T01:21:55.138Z,95805.13
2023-03-17T01:22:56.925Z,95747.81
2023-03-17T01:23:59.097Z,95837.19
2023-03-17T01:25:00.871Z,95743.00
2023-03-17T01:26:02.773Z,95742.59
2023-03-17T01:27:04.584Z,95857.25
2023-03-17T01:28:06.750Z,95811.16
2023-03-17T01:29:08.668Z,95699.94
2023-03-17T01:30:21.645Z,95741.47
2023-03-17T01:31:23.524Z,95732.13
2023-03-17T01:32:25.326Z,95749.03
2023-03-17T01:33:27.243Z,95847.97
2023-03-17T01:34:29.175Z,95831.16
2023-03-17T01:35:31.094Z,95722.31
2023-03-17T01:36:32.919Z,95868.16
2023-03-17T01:37:34.802Z,95787.34
2023-03-17T01:38:36.602Z,95789.66
2023-03-17T01:39:38.399Z,95746.53
2023-03-17T01:40:51.418Z,95885.38
2023-03-17T01:41:54.367Z,95829.47
2023-03-17T01:43:08.368Z,95888.78
2023-03-17T01:44:16.065Z,95861.13
2023-03-17T01:45:55.303Z,95878.59
2023-03-17T01:46:57.145Z,95846.13
2023-03-17T01:47:58.996Z,95817.25
2023-03-17T01:49:03.409Z,95915.19
2023-03-17T01:50:08.818Z,95748.56
2023-03-17T01:51:17.689Z,95864.69
2023-03-17T01:52:21.902Z,95720.16
2023-03-17T01:53:23.937Z,95818.16
2023-03-17T01:54:44.428Z,95883.31
2023-03-17T01:55:46.586Z,95854.88
2023-03-17T01:56:51.834Z,95750.22
2023-03-17T01:57:54.749Z,95866.97
2023-03-17T01:58:59.790Z,95857.72
2023-03-17T02:00:09.508Z,95890.66
2023-03-17T02:01:11.689Z,95741.53
2023-03-17T02:02:20.301Z,95876.16
2023-03-17T02:03:23.727Z,95794.75
2023-03-17T02:04:25.859Z,95707.16
2023-03-17T02:05:29.987Z,95776.19
2023-03-17T02:06:33.885Z,95769.94
2023-03-17T02:07:36.211Z,95714.44
2023-03-17T02:08:38.022Z,95774.31
2023-03-17T02:11:05.497Z,95747.31
2023-03-17T02:12:09.087Z,95742.84
2023-03-17T02:13:13.453Z,95874.69
2023-03-17T02:14:15.276Z,95839.00
2023-03-17T02:15:17.219Z,95812.06
2023-03-17T02:16:19.025Z,95773.94
2023-03-17T02:17:22.939Z,95761.25
2023-03-17T02:18:24.796Z,95852.78
2023-03-17T02:19:27.286Z,95765.84
2023-03-17T02:20:29.384Z,95801.56
2023-03-17T02:21:37.990Z,95797.31
2023-03-17T02:22:39.848Z,95878.00
2023-03-17T02:23:41.758Z,95816.03
2023-03-17T02:24:47.828Z,95773.78
2023-03-17T02:25:51.145Z,95733.56
2023-03-17T02:26:55.557Z,95866.47
2023-03-17T02:28:02.238Z,95852.47
2023-03-17T02:29:04.949Z,95719.88
2023-03-17T02:30:10.592Z,95856.31
2023-03-17T02:31:12.743Z,95768.09
2023-03-17T02:32:17.018Z,95850.72
2023-03-17T02:33:18.881Z,95790.09
2023-03-17T02:34:20.751Z,95880.03
2023-03-17T02:35:22.547Z,95898.34
2023-03-17T02:36:24.642Z,95795.47
2023-03-17T02:37:26.474Z,95929.03
2023-03-17T02:38:28.320Z,95905.19
2023-03-17T02:39:30.098Z,95766.16
2023-03-17T02:40:32.484Z,95905.44
2023-03-17T02:41:35.064Z,95895.09
2023-03-17T02:42:37.303Z,95777.69
2023-03-17T02:43:39.122Z,95786.81
2023-03-17T02:44:40.927Z,95785.84
2023-03-17T02:45:42.872Z,95910.53
2023-03-17T02:46:44.769Z,95884.09
2023-03-17T02:47:47.051Z,95894.44
2023-03-17T02:48:49.898Z,95719.59
2023-03-17T02:49:52.516Z,95910.50
2023-03-17T02:50:54.365Z,95794.13
2023-03-17T02:51:56.349Z,95774.31
2023-03-17T02:52:58.105Z,95788.06
2023-03-17T02:54:21.881Z,95923.63
2023-03-17T02:55:23.688Z,95790.63
2023-03-17T02:56:25.416Z,95915.78
2023-03-17T02:57:27.196Z,95899.25
2023-03-17T02:58:28.985Z,95870.28
2023-03-17T02:59:30.659Z,95969.53
2023-03-17T03:00:32.606Z,95797.00
2023-03-17T03:01:34.880Z,95871.03
2023-03-17T03:02:38.011Z,95758.84
2023-03-17T03:03:39.847Z,95910.72
2023-03-17T03:04:41.625Z,95727.09
2023-03-17T03:05:43.419Z,95854.09
2023-03-17T03:06:45.279Z,95818.69
2023-03-17T03:07:47.008Z,95906.69
2023-03-17T03:08:48.735Z,95921.34
2023-03-17T03:09:50.381Z,95790.69
2023-03-17T03:10:52.119Z,95810.72
2023-03-17T03:11:53.945Z,95908.50
2023-03-17T03:12:55.580Z,95838.47
2023-03-17T03:13:57.622Z,95648.91
2023-03-17T03:14:59.305Z,95785.38
2023-03-17T03:16:01.043Z,95709.66
2023-03-17T03:17:02.848Z,95807.06
2023-03-17T03:18:04.625Z,95927.59
2023-03-17T03:19:06.401Z,95934.09
2023-03-17T03:20:09.054Z,95817.19
2023-03-17T03:21:10.941Z,95862.41
2023-03-17T03:22:12.657Z,95909.53
2023-03-17T03:23:14.780Z,95888.47
2023-03-17T03:24:16.607Z,95858.41
2023-03-17T03:25:18.396Z,95909.28
2023-03-17T03:26:20.090Z,95963.22
2023-03-17T03:27:21.878Z,95819.97
2023-03-17T03:28:24.360Z,95938.84
2023-03-17T03:29:26.131Z,95841.44
2023-03-17T03:30:27.822Z,95843.84
2023-03-17T03:31:29.688Z,95944.44
2023-03-17T03:32:31.456Z,95774.28
2023-03-17T03:33:33.185Z,95819.06
2023-03-17T03:34:34.931Z,95808.09
2023-03-17T03:35:36.675Z,95959.53
2023-03-17T03:36:38.387Z,95784.16
2023-03-17T03:37:40.136Z,95941.31
2023-03-17T03:38:41.880Z,95895.59
2023-03-17T03:39:43.580Z,95869.03
2023-03-17T03:40:45.283Z,95894.66
2023-03-17T03:41:46.977Z,95870.59
2023-03-17T03:42:48.759Z,95936.16
2023-03-17T03:43:50.417Z,95918.09
2023-03-17T03:44:52.086Z,95906.28
2023-03-17T03:45:53.922Z,95976.56
2023-03-17T03:46:55.569Z,95828.97
2023-03-17T03:47:57.343Z,95930.75
2023-03-17T03:48:59.017Z,95800.34
2023-03-17T03:50:01.005Z,95950.13
2023-03-17T03:51:03.598Z,95828.38
2023-03-17T03:52:05.700Z,95912.63
2023-03-17T03:53:07.390Z,95955.59
2023-03-17T03:54:09.206Z,95789.94
2023-03-17T03:55:10.965Z,95829.63
2023-03-17T03:56:12.593Z,95957.81
2023-03-17T03:57:14.239Z,95869.50
2023-03-17T03:58:16.084Z,95833.88
2023-03-17T03:59:17.774Z,95978.13
2023-03-17T04:00:19.871Z,95811.38
2023-03-17T04:01:21.565Z,95967.00
2023-03-17T04:02:23.306Z,95831.09
2023-03-17T04:03:25.118Z,95893.03
2023-03-17T04:04:26.928Z,95825.91
2023-03-17T04:05:28.855Z,95954.34
2023-03-17T04:06:30.634Z,95826.19
2023-03-17T04:07:32.291Z,95939.44
2023-03-17T04:08:34.110Z,95919.84
2023-03-17T04:09:36.866Z,96011.28
2023-03-17T04:10:38.618Z,95855.81
2023-03-17T04:11:40.325Z,95797.06
2023-03-17T04:12:42.738Z,95967.88
2023-03-17T04:13:44.435Z,95967.75
2023-03-17T04:14:46.447Z,95924.56
2023-03-17T04:15:48.205Z,95985.88
2023-03-17T04:16:49.899Z,95874.19
2023-03-17T04:17:51.712Z,95968.88
2023-03-17T04:18:53.447Z,95948.66
2023-03-17T04:19:55.842Z,95981.91
2023-03-17T04:20:58.058Z,95840.53
2023-03-17T04:21:59.759Z,95935.94
2023-03-17T04:23:01.510Z,95954.50
2023-03-17T04:24:04.520Z,95954.22
2023-03-17T04:25:06.775Z,95877.97
2023-03-17T04:26:09.156Z,95957.47
2023-03-17T04:27:10.974Z,95982.91
2023-03-17T04:28:12.740Z,96007.53
2023-03-17T04:29:14.414Z,95921.34
2023-03-17T04:30:16.251Z,96003.72
2023-03-17T04:31:18.028Z,95926.44
2023-03-17T04:32:20.138Z,95832.97
2023-03-17T04:33:21.998Z,95814.22
2023-03-17T04:34:23.842Z,95823.81
2023-03-17T04:35:25.591Z,95850.31
2023-03-17T04:36:27.788Z,95845.81
2023-03-17T04:37:29.434Z,95994.44
2023-03-17T04:38:31.182Z,95825.06
2023-03-17T04:39:32.870Z,95997.09
2023-03-17T04:40:34.594Z,95883.50
2023-03-17T04:41:36.688Z,95977.41
2023-03-17T04:42:39.086Z,95895.28
2023-03-17T04:43:40.956Z,95870.28
2023-03-17T04:44:42.648Z,95911.81
2023-03-17T04:45:44.372Z,95973.44
2023-03-17T04:46:46.126Z,95879.28
2023-03-17T04:47:47.880Z,95903.75
2023-03-17T04:48:49.577Z,95865.28
2023-03-17T04:49:51.245Z,95946.56
2023-03-17T04:50:52.892Z,95987.34
2023-03-17T04:51:55.499Z,95872.78
2023-03-17T04:52:57.195Z,95875.63
2023-03-17T04:53:58.956Z,95894.94
2023-03-17T04:55:00.764Z,95969.94
2023-03-17T04:56:02.433Z,95838.38
2023-03-17T04:57:04.187Z,95991.28
2023-03-17T04:58:05.830Z,95823.59
2023-03-17T04:59:07.826Z,95975.84
2023-03-17T05:00:10.895Z,95883.84
2023-03-17T05:01:12.632Z,95974.16
2023-03-17T05:02:14.585Z,95980.22
2023-03-17T05:03:26.347Z,95850.50
2023-03-17T05:04:32.003Z,96013.53
2023-03-17T05:05:34.967Z,95989.00
2023-03-17T05:06:36.701Z,95998.59
2023-03-17T05:07:38.511Z,95893.91
2023-03-17T05:08:40.236Z,96034.63
2023-03-17T05:09:41.993Z,96003.84
2023-03-17T05:10:44.139Z,95849.59
2023-03-17T05:11:45.805Z,95988.69
2023-03-17T05:12:47.507Z,95917.75
2023-03-17T05:13:49.237Z,95868.31
2023-03-17T05:14:51.003Z,95917.63
2023-03-17T05:15:55.281Z,96022.22
2023-03-17T05:16:57.037Z,95903.81
2023-03-17T05:17:58.732Z,95944.75
2023-03-17T05:19:00.431Z,95922.72
2023-03-17T05:20:02.151Z,96019.03
2023-03-17T05:21:04.941Z,96013.84
2023-03-17T05:22:06.735Z,96002.78
2023-03-17T05:23:08.725Z,95884.59
2023-03-17T05:24:10.681Z,95939.19
2023-03-17T05:25:12.456Z,96076.63
2023-03-17T05:26:14.187Z,96028.06
2023-03-17T05:27:15.906Z,96059.97
2023-03-17T05:28:17.582Z,96057.03
2023-03-17T05:29:19.328Z,96039.63
2023-03-17T05:30:21.082Z,96082.69
2023-03-17T05:31:22.864Z,96064.91
2023-03-17T05:32:24.727Z,96037.66
2023-03-17T05:33:26.685Z,95918.69
2023-03-17T05:34:28.351Z,95996.13
2023-03-17T05:35:30.227Z,96063.03
2023-03-17T05:36:32.548Z,95943.66
2023-03-17T05:37:34.345Z,96041.75
2023-03-17T05:38:36.146Z,95882.09
2023-03-17T05:39:37.810Z,96059.09
2023-03-17T05:40:39.680Z,96038.22
2023-03-17T05:41:41.401Z,96015.06
2023-03-17T05:42:43.195Z,95958.09
2023-03-17T05:43:44.955Z,96038.47
2023-03-17T05:44:46.689Z,95883.25
2023-03-17T05:45:48.441Z,96041.75
2023-03-17T05:46:50.411Z,95940.19
2023-03-17T05:47:52.119Z,96010.94
2023-03-17T05:48:53.864Z,95914.22
2023-03-17T05:49:55.530Z,95911.88
2023-03-17T05:50:57.317Z,96042.66
2023-03-17T05:51:59.004Z,95975.69
2023-03-17T05:53:00.710Z,95875.84
2023-03-17T05:54:02.313Z,96102.56
2023-03-17T05:55:05.572Z,95960.47
2023-03-17T05:56:08.006Z,95900.16
2023-03-17T05:57:09.661Z,95971.22
2023-03-17T05:58:11.569Z,95898.34
2023-03-17T05:59:13.404Z,95933.88
2023-03-17T06:00:15.645Z,96058.50
2023-03-17T06:01:17.526Z,95939.69
2023-03-17T06:02:19.334Z,96110.72
2023-03-17T06:03:21.109Z,95988.44
2023-03-17T06:04:22.859Z,96096.03
2023-03-17T06:05:24.654Z,96094.47
2023-03-17T06:06:26.392Z,95990.31
2023-03-17T06:07:33.082Z,95953.94
2023-03-17T06:08:39.761Z,96065.41
2023-03-17T06:09:41.447Z,95929.22
2023-03-17T06:10:43.629Z,96083.88
2023-03-17T06:11:45.331Z,96078.91
2023-03-17T06:12:46.977Z,96048.28
2023-03-17T06:13:48.812Z,96033.38
2023-03-17T06:14:50.501Z,96094.47
2023-03-17T06:15:52.257Z,95909.81
2023-03-17T06:16:54.552Z,96065.78
2023-03-17T06:17:56.353Z,96006.22
2023-03-17T06:18:58.064Z,96059.09
2023-03-17T06:19:59.754Z,96017.16
2023-03-17T06:21:01.530Z,95985.97
2023-03-17T06:22:03.263Z,96045.81
2023-03-17T06:23:05.970Z,95920.56
2023-03-17T06:24:08.880Z,95981.63
2023-03-17T06:25:11.356Z,95999.06
2023-03-17T06:26:13.109Z,95987.78
2023-03-17T06:27:14.964Z,96108.66
2023-03-17T06:28:16.641Z,95998.00
2023-03-17T06:29:19.266Z,96045.16
2023-03-17T06:30:21.960Z,96101.50
2023-03-17T06:31:23.762Z,95946.88
2023-03-17T06:32:25.881Z,95997.22
2023-03-17T06:33:27.634Z,96007.50
2023-03-17T06:34:29.568Z,96017.63
2023-03-17T06:35:32.089Z,96065.53
2023-03-17T06:36:34.130Z,96094.75
2023-03-17T06:37:36.304Z,96102.16
2023-03-17T06:38:38.037Z,96065.94
2023-03-17T06:39:39.845Z,96066.66
2023-03-17T06:40:41.577Z,95950.13
2023-03-17T06:41:43.325Z,96091.38
2023-03-17T06:42:45.120Z,96085.97
2023-03-17T06:43:46.887Z,95924.53
2023-03-17T06:44:48.541Z,96139.06
2023-03-17T06:45:51.379Z,96118.63
2023-03-17T06:46:53.075Z,96083.41
2023-03-17T06:47:54.897Z,96014.53
2023-03-17T06:48:56.772Z,95909.94
2023-03-17T06:49:58.500Z,96096.19
2023-03-17T06:51:01.009Z,96113.69
2023-03-17T06:52:02.928Z,96000.13
2023-03-17T06:53:04.787Z,96044.25
2023-03-17T06:54:07.215Z,96077.66
2023-03-17T06:55:09.614Z,95981.13
2023-03-17T06:56:20.143Z,96105.81
2023-03-17T06:57:25.414Z,96115.47
2023-03-17T06:58:27.080Z,96079.41
2023-03-17T06:59:28.769Z,96135.81
2023-03-17T07:00:30.632Z,96012.41
2023-03-17T07:01:32.331Z,95979.72
2023-03-17T07:02:34.652Z,96118.50
2023-03-17T07:03:38.422Z,96135.97
2023-03-17T07:04:40.312Z,96029.75
2023-03-17T07:05:42.373Z,96036.06
2023-03-17T07:06:44.174Z,96087.00
2023-03-17T07:07:45.832Z,95971.50
2023-03-17T07:08:47.515Z,95959.50
2023-03-17T07:09:49.196Z,96012.69
2023-03-17T07:10:50.994Z,95995.19
2023-03-17T07:11:53.198Z,96114.03
2023-03-17T07:12:54.885Z,96112.31
2023-03-17T07:13:56.759Z,96009.38
2023-03-17T07:14:58.799Z,96002.16
2023-03-17T07:16:00.734Z,96032.25
2023-03-17T07:17:03.770Z,96071.84
2023-03-17T07:18:05.745Z,96096.03
2023-03-17T07:19:07.627Z,96037.25
2023-03-17T07:20:10.649Z,96119.69
2023-03-17T07:21:12.497Z,96032.66
2023-03-17T07:22:14.313Z,96006.69
2023-03-17T07:23:20.585Z,96117.13
2023-03-17T07:24:23.069Z,96143.72
2023-03-17T07:25:25.062Z,96051.84
2023-03-17T07:26:26.870Z,96122.94
2023-03-17T07:27:28.689Z,96019.97
2023-03-17T07:28:30.480Z,96033.75
2023-03-17T07:29:32.214Z,96039.41
2023-03-17T07:30:34.010Z,95978.34
2023-03-17T07:31:36.246Z,96152.03
2023-03-17T07:32:38.051Z,96033.44
2023-03-17T07:33:40.817Z,96104.28
2023-03-17T07:34:42.595Z,96133.47
2023-03-17T07:35:44.465Z,96068.84
2023-03-17T07:36:46.185Z,95951.41
2023-03-17T07:37:47.942Z,96150.84
2023-03-17T07:38:49.676Z,96051.63
2023-03-17T07:39:51.414Z,96034.56
2023-03-17T07:40:53.177Z,96085.56
2023-03-17T07:41:55.161Z,96151.75
2023-03-17T07:42:57.043Z,95996.63
2023-03-17T07:43:58.706Z,96025.91
2023-03-17T07:45:00.425Z,96109.66
2023-03-17T07:46:03.997Z,95950.75
2023-03-17T07:47:07.054Z,96062.63
2023-03-17T07:48:08.859Z,96111.09
2023-03-17T07:49:10.716Z,96155.69
2023-03-17T07:50:13.213Z,96138.63
2023-03-17T07:51:17.353Z,95996.03
2023-03-17T07:52:19.606Z,96144.16
2023-03-17T07:53:21.410Z,96109.75
2023-03-17T07:54:23.150Z,96039.69
2023-03-17T07:55:24.961Z,96007.50
2023-03-17T07:56:26.616Z,96003.19
2023-03-17T07:57:28.395Z,96034.25
2023-03-17T07:58:30.123Z,96149.63
2023-03-17T07:59:32.508Z,96141.91
2023-03-17T08:00:34.664Z,96023.97
2023-03-17T08:01:36.911Z,96035.94
2023-03-17T08:02:38.781Z,96148.16
2023-03-17T08:03:41.637Z,95929.97
2023-03-17T08:04:44.583Z,96103.88
2023-03-17T08:05:51.866Z,96165.72
2023-03-17T08:06:53.828Z,95995.06
2023-03-17T08:07:55.537Z,96066.22
2023-03-17T08:08:57.271Z,96027.97
2023-03-17T08:09:59.020Z,96139.06
2023-03-17T08:11:05.353Z,96154.38
2023-03-17T08:12:07.699Z,96132.69
2023-03-17T08:13:09.373Z,96052.44
2023-03-17T08:14:11.102Z,96196.75
2023-03-17T08:15:12.798Z,95983.97
2023-03-17T08:16:14.619Z,96152.41
2023-03-17T08:17:16.742Z,96061.53
2023-03-17T08:18:18.467Z,96188.19
2023-03-17T08:19:20.213Z,96012.97
2023-03-17T08:20:21.964Z,96098.53
2023-03-17T08:21:23.638Z,95997.72
2023-03-17T08:22:25.479Z,96165.50
2023-03-17T08:23:27.220Z,96166.25
2023-03-17T08:24:28.941Z,96121.84
2023-03-17T08:25:30.757Z,95986.56
2023-03-17T08:26:32.670Z,96169.06
2023-03-17T08:27:34.458Z,96036.53
2023-03-17T08:28:36.461Z,96166.97
2023-03-17T08:29:38.231Z,96031.06
2023-03-17T08:30:40.450Z,96105.03
2023-03-17T08:31:45.200Z,96015.66
2023-03-17T08:32:48.278Z,96122.88
2023-03-17T08:33:52.690Z,96130.72
2023-03-17T08:34:54.659Z,96010.09
2023-03-17T08:35:56.482Z,96076.75
2023-03-17T08:36:58.181Z,96039.81
2023-03-17T08:37:59.939Z,96122.13
2023-03-17T08:39:01.896Z,96037.78
2023-03-17T08:40:05.113Z,96190.28
2023-03-17T08:41:09.471Z,96159.28
2023-03-17T08:42:11.872Z,96149.03
2023-03-17T08:43:15.690Z,96068.94
2023-03-17T08:44:17.395Z,95997.75
2023-03-17T08:45:19.407Z,96160.75
2023-03-17T08:46:29.229Z,96032.78
2023-03-17T08:47:31.178Z,96054.13
2023-03-17T08:48:34.628Z,96041.63
2023-03-17T08:49:36.655Z,96032.50
2023-03-17T08:50:38.480Z,96047.72
2023-03-17T08:51:40.525Z,96138.16
2023-03-17T08:52:42.245Z,96128.41
2023-03-17T08:53:44.424Z,96149.88
2023-03-17T08:54:46.109Z,96004.06
2023-03-17T08:55:47.810Z,95976.50
2023-03-17T08:56:49.497Z,96052.09
2023-03-17T08:57:51.264Z,96044.94
2023-03-17T08:58:53.219Z,96120.72
2023-03-17T08:59:55.098Z,96057.66
2023-03-17T09:01:01.421Z,96099.41
2023-03-17T09:02:03.155Z,96197.78
2023-03-17T09:03:04.921Z,96040.97
2023-03-17T09:04:06.909Z,96167.44
2023-03-17T09:05:12.356Z,96148.19
2023-03-17T09:06:14.345Z,96136.13
2023-03-17T09:07:16.061Z,96114.97
2023-03-17T09:08:18.068Z,96149.28
2023-03-17T09:09:19.739Z,96123.34
2023-03-17T09:10:21.483Z,96033.56
2023-03-17T09:11:27.044Z,96163.88
2023-03-17T09:12:28.919Z,96148.84
2023-03-17T09:13:31.147Z,95958.81
2023-03-17T09:14:42.912Z,96034.75
2023-03-17T09:15:45.512Z,95992.59
2023-03-17T09:16:47.228Z,96098.38
2023-03-17T09:17:48.912Z,96039.44
2023-03-17T09:18:51.263Z,96105.16
2023-03-17T09:19:52.973Z,96156.03
2023-03-17T09:20:54.609Z,96033.09
2023-03-17T09:21:56.355Z,96152.00
2023-03-17T09:22:58.461Z,96142.13
2023-03-17T09:24:02.396Z,96174.75
2023-03-17T09:25:12.450Z,96180.25
2023-03-17T09:26:14.421Z,96005.22
2023-03-17T09:27:16.197Z,96009.22
2023-03-17T09:28:17.978Z,96072.19
2023-03-17T09:29:19.751Z,95925.53
2023-03-17T09:30:21.600Z,96125.69
2023-03-17T09:31:23.415Z,96149.63
2023-03-17T09:32:25.245Z,96045.91
2023-03-17T09:33:27.690Z,95991.00
2023-03-17T09:34:29.469Z,96048.28
2023-03-17T09:35:31.242Z,96019.91
2023-03-17T09:36:33.690Z,96058.16
2023-03-17T09:37:35.475Z,96027.47
2023-03-17T09:38:38.401Z,96032.47
2023-03-17T09:39:40.144Z,96042.72
2023-03-17T09:40:54.011Z,96132.16
2023-03-17T09:42:15.888Z,96137.59
2023-03-17T09:43:38.646Z,96065.53
2023-03-17T09:44:56.325Z,96060.53
2023-03-17T09:46:10.800Z,96129.66
2023-03-17T09:47:47.886Z,96179.59
2023-03-17T09:49:12.285Z,96083.44
2023-03-17T09:50:24.322Z,96164.25
2023-03-17T09:51:28.286Z,96112.91
2023-03-17T09:52:33.290Z,96143.50
2023-03-17T09:54:04.823Z,96157.38
2023-03-17T09:55:11.765Z,96032.16
2023-03-17T09:56:19.005Z,96159.75
2023-03-17T09:57:35.114Z,96176.22
2023-03-17T09:58:39.182Z,96130.38
2023-03-17T09:59:44.259Z,96134.06
2023-03-17T10:00:46.037Z,96071.50
2023-03-17T10:01:47.927Z,96065.94
2023-03-17T10:02:49.728Z,96150.69
2023-03-17T10:03:51.439Z,95975.59
2023-03-17T10:04:54.419Z,96078.63
2023-03-17T10:06:24.740Z,96190.03
2023-03-17T10:08:29.622Z,96187.81
2023-03-17T10:09:58.969Z,96220.97
2023-03-17T10:11:18.922Z,96067.75
2023-03-17T10:12:38.234Z,96158.19
2023-03-17T10:13:55.188Z,96179.22
2023-03-17T10:15:06.153Z,96150.63
2023-03-17T10:16:13.251Z,96187.91
2023-03-17T10:17:19.048Z,96144.81
2023-03-17T10:18:26.233Z,96140.91
2023-03-17T10:20:08.847Z,96183.81
2023-03-17T10:21:15.828Z,96174.22
2023-03-17T10:22:28.825Z,96178.63
2023-03-17T10:23:33.743Z,96130.88
2023-03-17T10:24:39.779Z,96105.22
2023-03-17T10:25:41.569Z,96092.84
2023-03-17T10:26:49.033Z,96003.56
2023-03-17T10:27:59.318Z,96139.28
2023-03-17T10:29:05.235Z,96019.56
2023-03-17T10:30:16.531Z,96053.66
2023-03-17T10:31:26.644Z,96175.06
2023-03-17T10:32:31.211Z,96097.75
2023-03-17T10:33:32.976Z,96155.69
2023-03-17T10:34:38.003Z,96045.56
2023-03-17T10:35:40.175Z,96041.69
2023-03-17T10:36:48.982Z,96076.16
2023-03-17T10:37:53.397Z,96086.28
2023-03-17T10:39:04.605Z,96151.69
2023-03-17T10:40:08.142Z,96035.53
2023-03-17T10:41:14.171Z,96091.50
2023-03-17T10:42:30.403Z,96023.50
2023-03-17T10:43:40.948Z,96017.19
2023-03-17T10:44:51.118Z,96054.28
2023-03-17T10:46:00.717Z,96124.22
2023-03-17T10:47:02.488Z,96165.56
2023-03-17T10:48:08.416Z,96099.91
2023-03-17T10:49:17.171Z,96057.91
2023-03-17T10:50:30.012Z,95955.50
2023-03-17T10:51:35.171Z,96156.53
2023-03-17T10:52:39.424Z,95998.00
2023-03-17T10:53:41.918Z,96093.13
2023-03-17T10:54:48.404Z,96032.09
2023-03-17T10:55:52.928Z,96171.34
2023-03-17T10:57:16.099Z,96156.25
2023-03-17T10:58:22.580Z,96045.75
2023-03-17T11:00:38.429Z,96028.28
2023-03-17T11:01:46.880Z,96111.63
2023-03-17T11:03:13.810Z,96115.41
2023-03-17T11:04:36.342Z,96152.84
2023-03-17T11:05:40.125Z,95950.88
2023-03-17T11:06:43.344Z,96154.03
2023-03-17T11:07:46.728Z,96035.03
2023-03-17T11:08:52.932Z,96027.47
2023-03-17T11:10:00.628Z,96126.38
2023-03-17T11:11:06.611Z,96146.13
2023-03-17T11:12:23.737Z,96155.91
2023-03-17T11:13:30.262Z,96057.03
2023-03-17T11:14:32.207Z,96049.25
2023-03-17T11:15:46.234Z,95867.47
2023-03-17T11:16:57.189Z,96048.16
2023-03-17T11:18:01.250Z,96042.72
2023-03-17T11:19:41.367Z,96139.47
2023-03-17T11:21:01.368Z,96137.91
2023-03-17T11:22:34.440Z,96129.06
2023-03-17T11:23:42.157Z,96031.25
2023-03-17T11:24:59.687Z,96024.41
2023-03-17T11:26:12.266Z,96156.69
2023-03-17T11:27:31.209Z,96100.75
2023-03-17T11:28:40.329Z,95983.25
2023-03-17T11:30:03.366Z,95995.94
2023-03-17T11:31:15.776Z,96053.41
2023-03-17T11:33:01.713Z,96085.03
2023-03-17T11:34:25.499Z,96128.00
2023-03-17T11:35:51.252Z,96015.09
2023-03-17T11:37:00.275Z,96086.91
2023-03-17T11:38:28.135Z,96119.34
2023-03-17T11:39:53.140Z,96075.53
2023-03-17T11:41:21.424Z,96142.66
2023-03-17T11:42:47.733Z,96107.00
2023-03-17T11:44:13.337Z,96148.88
2023-03-17T11:45:23.535Z,96116.03
2023-03-17T11:46:31.135Z,96137.22
2023-03-17T11:47:53.900Z,96116.19
2023-03-17T11:49:17.934Z,96113.56
2023-03-17T11:50:40.849Z,96111.16
2023-03-17T11:51:55.150Z,96138.38
2023-03-17T11:53:09.384Z,96110.78
2023-03-17T11:54:35.099Z,96132.63
2023-03-17T11:57:29.284Z,96105.53
2023-03-17T11:58:42.897Z,96110.94
2023-03-17T12:00:03.213Z,95976.59
2023-03-17T12:01:09.520Z,96100.22
2023-03-17T12:02:11.308Z,96100.59
2023-03-17T12:03:39.444Z,96104.19
2023-03-17T12:04:48.680Z,96096.91
2023-03-17T12:05:56.153Z,96093.78
2023-03-17T12:07:06.616Z,96088.03
2023-03-17T12:08:17.673Z,96082.03
2023-03-17T12:09:34.360Z,96084.66
2023-03-17T12:10:53.025Z,96097.69
2023-03-17T12:11:57.085Z,95961.22
2023-03-17T12:13:35.169Z,96136.72
2023-03-17T12:14:48.616Z,96079.84
2023-03-17T12:16:03.131Z,95990.75
2023-03-17T12:17:25.785Z,96096.88
2023-03-17T12:18:45.721Z,96099.66
2023-03-17T12:20:05.746Z,96113.50
2023-03-17T12:21:21.414Z,95972.44
2023-03-17T12:23:09.469Z,96086.06
2023-03-17T12:24:27.125Z,96085.94
2023-03-17T12:25:37.617Z,95953.75
2023-03-17T12:26:50.448Z,96088.44
2023-03-17T12:28:10.473Z,96064.44
2023-03-17T12:29:19.364Z,96040.78
2023-03-17T12:30:53.208Z,96072.31
2023-03-17T12:32:17.802Z,95948.91
2023-03-17T12:33:31.064Z,96029.63
2023-03-17T12:34:51.464Z,95904.28
2023-03-17T12:35:53.238Z,96054.84
2023-03-17T12:36:55.520Z,96052.47
2023-03-17T12:38:00.810Z,96076.75
2023-03-17T12:39:09.183Z,95897.91
2023-03-17T12:40:20.098Z,95969.53
2023-03-17T12:41:33.464Z,96097.81
2023-03-17T12:42:42.617Z,96074.41
2023-03-17T12:43:54.464Z,96032.22
2023-03-17T12:45:25.961Z,96060.81
2023-03-17T12:47:07.723Z,95992.13
2023-03-17T12:48:56.136Z,95976.72
2023-03-17T12:50:39.170Z,96076.03